Time;durP1;ratioP1;P1;durP2;ratioP2;P2;SDS_P1;SDS_P2;PMS_P1;PMS_P2;Temp;Humidity;BMP_temperature;BMP_pressure;BME280_temperature;BME280_humidity;BME280_pressure;Samples;Min_cycle;Max_cycle;Signal;HPM_P1;HPM_P2
2023/11/14 00:01:44;;;;;;;55.23;2.20;;;;;;;;;;5051481;28;20473;-70
2023/11/14 00:04:12;;;;;;;55.17;2.20;;;;;;;;;;5051626;28;20452;-71
2023/11/14 00:06:39;;;;;;;55.80;1.90;;;;;;;;;;5051569;28;20542;-70
2023/11/14 00:09:09;;;;;;;55.27;1.73;;;;;;;;;;5050971;28;21007;-70
2023/11/14 00:11:36;;;;;;;55.50;2.00;;;;;;;;;;5051419;28;20834;-70
2023/11/14 00:14:04;;;;;;;55.63;1.90;;;;;;;;;;5051355;28;20447;-70
2023/11/14 00:16:31;;;;;;;55.67;2.33;;;;;;;;;;5051341;28;20454;-70
2023/11/14 00:18:58;;;;;;;55.37;1.80;;;;;;;;;;5051366;28;20445;-70
2023/11/14 00:21:25;;;;;;;55.80;1.80;;;;;;;;;;5051347;28;20467;-71
2023/11/14 00:23:52;;;;;;;55.67;2.00;;;;;;;;;;5051405;28;20549;-71
2023/11/14 00:26:22;;;;;;;54.97;1.90;;;;;;;;;;5051090;28;20952;-70
2023/11/14 00:28:49;;;;;;;55.83;1.87;;;;;;;;;;5051071;28;20509;-71
2023/11/14 00:31:16;;;;;;;55.50;1.77;;;;;;;;;;5051166;28;20474;-71
2023/11/14 00:33:43;;;;;;;55.03;1.67;;;;;;;;;;5051271;28;20458;-71
2023/11/14 00:36:10;;;;;;;55.43;1.97;;;;;;;;;;5051041;28;20451;-71
2023/11/14 00:38:37;;;;;;;55.60;1.80;;;;;;;;;;5051306;28;20451;-71
2023/11/14 00:41:04;;;;;;;55.47;1.90;;;;;;;;;;5050763;28;20477;-71
2023/11/14 00:43:33;;;;;;;55.23;1.83;;;;;;;;;;5050855;28;20931;-71
2023/11/14 00:46:00;;;;;;;55.37;1.63;;;;;;;;;;5050873;28;20455;-71
2023/11/14 00:48:27;;;;;;;55.67;1.80;;;;;;;;;;5050870;28;20544;-71
2023/11/14 00:50:55;;;;;;;57.07;2.20;;;;;;;;;;5050900;28;20474;-71
2023/11/14 00:53:22;;;;;;;55.80;1.90;;;;;;;;;;5050643;28;20459;-71
2023/11/14 00:55:50;;;;;;;55.80;1.70;;;;;;;;;;5050876;28;20455;-71
2023/11/14 00:58:17;;;;;;;55.17;1.80;;;;;;;;;;5052476;28;20447;-71
2023/11/14 01:00:45;;;;;;;55.77;1.90;;;;;;;;;;5054985;28;20997;-71
2023/11/14 01:03:12;;;;;;;55.80;2.03;;;;;;;;;;5055159;28;20451;-70
2023/11/14 01:05:39;;;;;;;57.77;2.40;;;;;;;;;;5055100;28;20889;-70
2023/11/14 01:08:07;;;;;;;55.27;2.10;;;;;;;;;;5054728;28;20495;-70
2023/11/14 01:10:34;;;;;;;55.87;2.10;;;;;;;;;;5054699;28;20482;-70
2023/11/14 01:13:01;;;;;;;55.57;2.07;;;;;;;;;;5055040;28;20456;-70
2023/11/14 01:15:28;;;;;;;55.80;1.87;;;;;;;;;;5054936;28;20866;-71
2023/11/14 01:17:57;;;;;;;55.73;2.10;;;;;;;;;;5054775;28;20986;-71
2023/11/14 01:20:24;;;;;;;58.07;2.30;;;;;;;;;;5054928;28;21031;-71
2023/11/14 01:22:51;;;;;;;54.97;1.80;;;;;;;;;;5054803;28;20947;-71
2023/11/14 01:25:18;;;;;;;55.37;2.67;;;;;;;;;;5054845;28;20447;-70
2023/11/14 01:27:46;;;;;;;55.87;2.37;;;;;;;;;;5054509;28;20530;-71
2023/11/14 01:30:13;;;;;;;55.33;2.30;;;;;;;;;;5054324;28;20497;-71
2023/11/14 01:32:40;;;;;;;55.57;2.30;;;;;;;;;;5054294;28;20474;-70
2023/11/14 01:35:09;;;;;;;55.87;2.10;;;;;;;;;;5054341;28;20446;-71
2023/11/14 01:37:37;;;;;;;55.50;2.23;;;;;;;;;;5054083;28;20459;-71
2023/11/14 01:40:04;;;;;;;55.63;2.03;;;;;;;;;;5054153;28;20448;-70
2023/11/14 01:42:31;;;;;;;55.27;2.20;;;;;;;;;;5054082;28;20931;-71
2023/11/14 01:44:58;;;;;;;55.90;2.00;;;;;;;;;;5054407;28;20962;-71
2023/11/14 01:47:25;;;;;;;55.90;2.13;;;;;;;;;;5054293;28;20443;-71
2023/11/14 01:49:52;;;;;;;56.00;2.10;;;;;;;;;;5054169;28;20490;-71
2023/11/14 01:52:21;;;;;;;56.43;3.03;;;;;;;;;;5054263;28;20471;-71
2023/11/14 01:54:48;;;;;;;55.90;2.00;;;;;;;;;;5054444;28;20447;-71
2023/11/14 01:57:16;;;;;;;56.00;2.10;;;;;;;;;;5054052;28;20454;-71
2023/11/14 01:59:44;;;;;;;56.30;2.70;;;;;;;;;;5054313;28;20439;-71
2023/11/14 02:02:11;;;;;;;55.57;2.00;;;;;;;;;;5053987;28;20469;-71
2023/11/14 02:04:39;;;;;;;55.97;2.00;;;;;;;;;;5053791;28;20930;-71
2023/11/14 02:07:06;;;;;;;57.13;2.93;;;;;;;;;;5053717;28;20939;-71
2023/11/14 02:09:35;;;;;;;55.33;2.07;;;;;;;;;;5053535;28;20482;-71
2023/11/14 02:12:02;;;;;;;55.70;2.03;;;;;;;;;;5053930;28;20590;-71
2023/11/14 02:14:29;;;;;;;60.07;2.97;;;;;;;;;;5053768;28;20443;-71
2023/11/14 02:16:57;;;;;;;55.10;1.90;;;;;;;;;;5053712;28;20534;-71
2023/11/14 02:19:24;;;;;;;55.27;2.10;;;;;;;;;;5053784;28;20447;-71
2023/11/14 02:21:52;;;;;;;59.50;3.23;;;;;;;;;;5053521;28;20473;-71
2023/11/14 02:24:19;;;;;;;56.00;2.30;;;;;;;;;;5053572;28;20453;-71
2023/11/14 02:26:49;;;;;;;55.67;2.00;;;;;;;;;;5052817;28;20535;-71
2023/11/14 02:29:16;;;;;;;55.80;2.00;;;;;;;;;;5053299;28;20501;-71
2023/11/14 02:31:43;;;;;;;55.60;2.00;;;;;;;;;;5053567;28;20839;-71
2023/11/14 02:34:11;;;;;;;55.63;1.97;;;;;;;;;;5053246;28;20546;-71
2023/11/14 02:36:39;;;;;;;55.47;1.97;;;;;;;;;;5053425;28;20446;-71
2023/11/14 02:39:07;;;;;;;55.47;1.80;;;;;;;;;;5053007;28;20455;-71
2023/11/14 02:41:34;;;;;;;55.70;2.00;;;;;;;;;;5053117;28;20985;-71
2023/11/14 02:44:03;;;;;;;56.00;2.10;;;;;;;;;;5053440;28;20852;-71
2023/11/14 02:46:30;;;;;;;55.43;2.10;;;;;;;;;;5045132;28;20506;-71
2023/11/14 02:48:58;;;;;;;55.67;2.10;;;;;;;;;;5052918;28;20490;-71
2023/11/14 02:51:25;;;;;;;55.47;2.00;;;;;;;;;;5052998;28;20498;-71
2023/11/14 02:53:53;;;;;;;55.57;2.07;;;;;;;;;;5052872;28;20456;-71
2023/11/14 02:59:25;;;;;;;55.27;2.10;;;;;;;;;;5052593;28;20480;-71
2023/11/14 03:01:52;;;;;;;55.90;2.00;;;;;;;;;;5052890;28;20472;-71
2023/11/14 03:04:19;;;;;;;55.97;2.20;;;;;;;;;;5052759;28;20447;-71
2023/11/14 03:06:46;;;;;;;55.70;2.10;;;;;;;;;;5052806;28;20481;-71
2023/11/14 03:09:14;;;;;;;55.97;2.80;;;;;;;;;;5052871;28;20497;-71
2023/11/14 03:11:41;;;;;;;55.70;1.90;;;;;;;;;;5052732;28;20482;-71
2023/11/14 03:14:09;;;;;;;56.00;1.83;;;;;;;;;;5052783;28;20487;-71
2023/11/14 03:16:37;;;;;;;55.90;2.30;;;;;;;;;;5052598;28;20468;-71
2023/11/14 03:19:05;;;;;;;55.77;2.20;;;;;;;;;;5052433;28;20455;-71
2023/11/14 03:21:33;;;;;;;55.80;2.00;;;;;;;;;;5051547;28;20482;-71
2023/11/14 03:24:00;;;;;;;55.90;1.97;;;;;;;;;;5052878;28;20508;-71
2023/11/14 03:26:33;;;;;;;55.90;1.90;;;;;;;;;;5052647;28;20454;-71
2023/11/14 03:29:00;;;;;;;55.77;1.80;;;;;;;;;;5052560;28;20451;-71
2023/11/14 03:31:27;;;;;;;55.27;1.93;;;;;;;;;;5052714;28;20561;-71
2023/11/14 03:33:56;;;;;;;57.20;2.77;;;;;;;;;;5052087;28;20815;-71
2023/11/14 03:36:23;;;;;;;55.50;1.87;;;;;;;;;;5052041;28;20450;-71
2023/11/14 03:38:50;;;;;;;55.90;2.20;;;;;;;;;;5052248;28;20936;-71
2023/11/14 03:41:17;;;;;;;55.57;2.23;;;;;;;;;;5052205;28;20482;-71
2023/11/14 03:43:44;;;;;;;55.80;2.20;;;;;;;;;;5052333;28;20958;-71
2023/11/14 03:46:11;;;;;;;57.53;2.97;;;;;;;;;;5052256;28;20940;-71
2023/11/14 03:48:38;;;;;;;55.10;1.83;;;;;;;;;;5051920;28;20450;-71
2023/11/14 03:51:09;;;;;;;70.87;2.57;;;;;;;;;;5052042;28;20494;-71
2023/11/14 03:53:37;;;;;;;55.30;2.10;;;;;;;;;;5052092;28;20451;-71
2023/11/14 03:56:05;;;;;;;55.90;2.30;;;;;;;;;;5052118;28;20463;-70
2023/11/14 03:58:32;;;;;;;55.90;2.10;;;;;;;;;;5051982;28;20970;-71
2023/11/14 04:00:59;;;;;;;55.67;1.90;;;;;;;;;;5051846;28;20472;-71
2023/11/14 04:03:26;;;;;;;56.10;2.37;;;;;;;;;;5052108;28;20455;-71
2023/11/14 04:05:53;;;;;;;56.00;2.13;;;;;;;;;;5051860;28;20447;-71
2023/11/14 04:08:22;;;;;;;56.10;2.40;;;;;;;;;;5051441;28;20446;-71
2023/11/14 04:10:50;;;;;;;56.00;2.10;;;;;;;;;;5051419;28;20495;-71
2023/11/14 04:13:17;;;;;;;55.90;2.00;;;;;;;;;;5051585;28;20553;-71
2023/11/14 04:15:44;;;;;;;56.37;2.70;;;;;;;;;;5051425;28;20458;-71
2023/11/14 04:18:11;;;;;;;55.90;2.20;;;;;;;;;;5051422;28;20457;-71
2023/11/14 04:20:38;;;;;;;55.60;1.97;;;;;;;;;;5051528;28;20467;-71
2023/11/14 04:23:05;;;;;;;55.67;2.00;;;;;;;;;;5051397;28;20541;-74
2023/11/14 04:25:34;;;;;;;55.97;2.10;;;;;;;;;;5051353;28;20450;-71
2023/11/14 04:28:01;;;;;;;58.67;3.10;;;;;;;;;;5051334;28;21016;-71
2023/11/14 04:30:28;;;;;;;55.73;2.10;;;;;;;;;;5051255;28;20491;-71
2023/11/14 04:32:56;;;;;;;56.03;2.17;;;;;;;;;;5051460;28;20455;-71
2023/11/14 04:35:23;;;;;;;55.77;2.20;;;;;;;;;;5051428;28;20456;-72
2023/11/14 04:37:52;;;;;;;56.10;2.40;;;;;;;;;;5051173;28;20451;-71
2023/11/14 04:40:19;;;;;;;55.97;2.50;;;;;;;;;;5051108;28;20447;-71
2023/11/14 04:42:47;;;;;;;56.00;1.97;;;;;;;;;;5050834;28;21010;-71
2023/11/14 04:45:14;;;;;;;55.70;1.93;;;;;;;;;;5051214;28;20477;-71
2023/11/14 04:47:41;;;;;;;55.47;2.10;;;;;;;;;;5051136;28;20468;-71
2023/11/14 04:50:09;;;;;;;55.90;2.00;;;;;;;;;;5051170;28;20486;-71
2023/11/14 04:52:36;;;;;;;55.67;2.20;;;;;;;;;;5050941;28;20557;-71
2023/11/14 04:55:04;;;;;;;56.10;2.60;;;;;;;;;;5050959;28;20486;-71
2023/11/14 04:57:31;;;;;;;55.23;2.10;;;;;;;;;;5050996;28;20450;-71
2023/11/14 05:00:00;;;;;;;55.47;2.10;;;;;;;;;;5051246;28;20892;-71
2023/11/14 05:02:27;;;;;;;56.73;3.37;;;;;;;;;;5051051;28;20467;-71
2023/11/14 05:04:55;;;;;;;56.07;2.10;;;;;;;;;;5051081;28;20915;-71
2023/11/14 05:07:22;;;;;;;55.07;1.83;;;;;;;;;;5050805;28;20454;-71
2023/11/14 05:09:51;;;;;;;55.73;2.17;;;;;;;;;;5050896;28;20892;-71
2023/11/14 05:12:19;;;;;;;56.00;2.20;;;;;;;;;;5050862;28;20562;-71
2023/11/14 05:14:46;;;;;;;55.87;2.00;;;;;;;;;;5051075;28;20450;-71
2023/11/14 05:17:14;;;;;;;55.57;2.27;;;;;;;;;;5050762;28;20447;-71
2023/11/14 05:19:42;;;;;;;55.80;2.30;;;;;;;;;;5051008;28;20454;-71
2023/11/14 05:22:09;;;;;;;56.10;2.50;;;;;;;;;;5050910;28;20478;-72
2023/11/14 05:24:36;;;;;;;55.87;3.00;;;;;;;;;;5050527;28;20459;-71
2023/11/14 05:27:04;;;;;;;56.00;2.50;;;;;;;;;;5050892;28;20451;-72
2023/11/14 05:29:31;;;;;;;55.60;2.33;;;;;;;;;;5050727;28;20447;-71
2023/11/14 05:31:58;;;;;;;56.07;2.20;;;;;;;;;;5050859;28;20648;-71
2023/11/14 05:34:26;;;;;;;55.93;2.40;;;;;;;;;;5050732;28;20926;-71
2023/11/14 05:36:53;;;;;;;56.00;2.37;;;;;;;;;;5050693;28;20453;-72
2023/11/14 05:39:20;;;;;;;55.97;2.40;;;;;;;;;;5050980;28;20451;-71
2023/11/14 05:41:47;;;;;;;56.07;2.30;;;;;;;;;;5050871;28;20979;-71
2023/11/14 05:44:14;;;;;;;55.97;2.40;;;;;;;;;;5052313;28;20466;-72
2023/11/14 05:46:42;;;;;;;55.43;2.17;;;;;;;;;;5054209;28;20454;-71
2023/11/14 05:49:09;;;;;;;55.90;2.50;;;;;;;;;;5054490;28;20455;-72
2023/11/14 05:51:38;;;;;;;55.90;2.40;;;;;;;;;;5053979;28;20494;-71
2023/11/14 05:54:05;;;;;;;55.57;2.17;;;;;;;;;;5054122;28;20977;-71
2023/11/14 05:56:32;;;;;;;55.87;2.00;;;;;;;;;;5054226;28;20458;-71
2023/11/14 05:58:59;;;;;;;55.83;2.17;;;;;;;;;;5054372;28;20451;-71
2023/11/14 06:01:27;;;;;;;55.87;1.90;;;;;;;;;;5053998;28;20498;-71
2023/11/14 06:03:54;;;;;;;55.50;1.80;;;;;;;;;;5053946;28;20829;-72
2023/11/14 06:06:21;;;;;;;56.50;3.30;;;;;;;;;;5053607;28;20453;-71
2023/11/14 06:08:49;;;;;;;55.70;2.20;;;;;;;;;;5053716;28;20458;-72
2023/11/14 06:11:16;;;;;;;55.33;2.33;;;;;;;;;;5053704;28;20998;-71
2023/11/14 06:13:45;;;;;;;55.80;2.60;;;;;;;;;;5053948;28;20450;-71
2023/11/14 06:16:12;;;;;;;55.87;2.30;;;;;;;;;;5054367;28;20455;-72
2023/11/14 06:18:39;;;;;;;55.93;1.97;;;;;;;;;;5053801;28;20452;-72
2023/11/14 06:21:07;;;;;;;55.67;2.20;;;;;;;;;;5054418;28;20478;-72
2023/11/14 06:23:33;;;;;;;55.77;2.30;;;;;;;;;;5053999;28;20451;-72
2023/11/14 06:26:01;;;;;;;55.30;1.90;;;;;;;;;;5053760;28;20447;-72
2023/11/14 06:28:27;;;;;;;55.70;2.23;;;;;;;;;;5053620;28;20493;-72
2023/11/14 06:30:54;;;;;;;55.67;2.33;;;;;;;;;;5053831;28;20570;-71
2023/11/14 06:33:21;;;;;;;55.70;2.00;;;;;;;;;;5053316;28;20447;-71
2023/11/14 06:35:49;;;;;;;55.70;2.17;;;;;;;;;;5053851;28;20458;-71
2023/11/14 06:38:16;;;;;;;55.77;1.90;;;;;;;;;;5053510;28;20777;-71
2023/11/14 06:40:44;;;;;;;56.60;2.20;;;;;;;;;;5053427;28;20474;-71
2023/11/14 06:43:12;;;;;;;55.63;1.80;;;;;;;;;;5053220;28;20451;-72
2023/11/14 06:45:39;;;;;;;55.77;1.80;;;;;;;;;;5053523;28;20485;-71
2023/11/14 06:48:07;;;;;;;55.77;2.40;;;;;;;;;;5053539;28;20455;-72
2023/11/14 06:50:34;;;;;;;55.67;2.13;;;;;;;;;;5053358;28;20513;-72
2023/11/14 06:53:01;;;;;;;55.70;2.13;;;;;;;;;;5053254;28;20465;-72
2023/11/14 06:55:29;;;;;;;55.67;2.10;;;;;;;;;;5051997;28;20451;-71
2023/11/14 06:57:56;;;;;;;55.60;2.00;;;;;;;;;;5053112;28;20455;-72
2023/11/14 07:00:24;;;;;;;55.90;2.20;;;;;;;;;;5053028;28;20471;-71
2023/11/14 07:02:51;;;;;;;55.87;2.47;;;;;;;;;;5052951;28;20450;-72
2023/11/14 07:05:19;;;;;;;56.57;2.67;;;;;;;;;;5052826;28;20447;-71
2023/11/14 07:07:46;;;;;;;55.90;2.20;;;;;;;;;;5052899;28;20458;-72
2023/11/14 07:10:14;;;;;;;55.80;2.23;;;;;;;;;;5052312;28;20634;-72
2023/11/14 07:12:41;;;;;;;56.30;2.50;;;;;;;;;;5052457;28;20454;-72
2023/11/14 07:15:10;;;;;;;55.60;2.07;;;;;;;;;;5052504;28;20487;-72
2023/11/14 07:17:39;;;;;;;56.10;2.97;;;;;;;;;;5052597;28;20458;-71
2023/11/14 07:20:10;;;;;;;55.70;1.87;;;;;;;;;;5052560;28;20482;-72
2023/11/14 07:22:37;;;;;;;55.63;2.60;;;;;;;;;;5052246;28;20965;-71
2023/11/14 07:25:05;;;;;;;55.57;2.13;;;;;;;;;;5052925;28;20489;-72
2023/11/14 07:27:32;;;;;;;56.20;2.70;;;;;;;;;;5052034;28;20485;-72
2023/11/14 07:29:59;;;;;;;55.90;2.13;;;;;;;;;;5052647;28;20465;-72
2023/11/14 07:32:26;;;;;;;59.23;2.20;;;;;;;;;;5052507;28;20464;-72
2023/11/14 07:34:55;;;;;;;55.70;2.20;;;;;;;;;;5052514;28;20458;-72
2023/11/14 07:37:22;;;;;;;56.00;2.43;;;;;;;;;;5051981;28;20820;-72
2023/11/14 07:39:49;;;;;;;55.70;2.03;;;;;;;;;;5052427;28;20447;-72
2023/11/14 07:42:17;;;;;;;55.60;2.57;;;;;;;;;;5052235;28;20465;-72
2023/11/14 07:44:44;;;;;;;55.37;2.27;;;;;;;;;;5052531;28;20446;-71
2023/11/14 07:47:11;;;;;;;55.90;2.20;;;;;;;;;;5052182;28;20947;-72
2023/11/14 07:49:39;;;;;;;55.47;2.00;;;;;;;;;;5051996;28;20966;-72
2023/11/14 07:52:08;;;;;;;56.63;3.83;;;;;;;;;;5051946;28;20529;-72
2023/11/14 07:54:36;;;;;;;56.67;2.30;;;;;;;;;;5052062;28;20464;-72
2023/11/14 07:57:04;;;;;;;56.00;2.20;;;;;;;;;;5052159;28;20455;-71
2023/11/14 07:59:31;;;;;;;55.87;1.90;;;;;;;;;;5051953;28;20455;-72
2023/11/14 08:01:58;;;;;;;55.87;2.40;;;;;;;;;;5051685;28;20478;-71
2023/11/14 08:04:25;;;;;;;55.70;1.90;;;;;;;;;;5051818;28;20450;-72
2023/11/14 08:06:52;;;;;;;55.70;2.00;;;;;;;;;;5051195;28;21051;-71
2023/11/14 08:09:21;;;;;;;55.47;1.90;;;;;;;;;;5051317;28;20835;-72
2023/11/14 08:11:48;;;;;;;55.47;1.87;;;;;;;;;;5043765;28;20495;-72
2023/11/14 08:14:16;;;;;;;55.77;2.07;;;;;;;;;;5052025;28;20453;-71
2023/11/14 08:16:43;;;;;;;55.17;1.80;;;;;;;;;;5051516;28;20447;-71
2023/11/14 08:19:10;;;;;;;55.90;1.90;;;;;;;;;;5051941;28;20446;-71
2023/11/14 08:21:37;;;;;;;55.70;1.73;;;;;;;;;;5051147;28;20472;-71
2023/11/14 08:24:04;;;;;;;55.57;1.97;;;;;;;;;;5051605;28;20450;-71
2023/11/14 08:26:33;;;;;;;55.80;2.17;;;;;;;;;;5051719;28;20458;-71
2023/11/14 08:29:00;;;;;;;55.77;1.67;;;;;;;;;;5051659;28;20831;-71
2023/11/14 08:31:27;;;;;;;55.60;2.00;;;;;;;;;;5051408;28;20486;-72
2023/11/14 08:33:55;;;;;;;55.77;2.00;;;;;;;;;;5051695;28;20475;-72
2023/11/14 08:36:22;;;;;;;55.33;2.00;;;;;;;;;;5051403;28;20483;-71
2023/11/14 08:38:49;;;;;;;55.87;2.03;;;;;;;;;;5051042;28;20458;-72
2023/11/14 08:41:16;;;;;;;55.70;1.87;;;;;;;;;;5051209;28;20466;-71
2023/11/14 08:43:45;;;;;;;55.67;1.80;;;;;;;;;;5051148;28;20492;-71
2023/11/14 08:46:14;;;;;;;55.47;2.10;;;;;;;;;;5051224;28;20455;-71
2023/11/14 08:48:43;;;;;;;55.63;1.90;;;;;;;;;;5050764;28;20463;-71
2023/11/14 08:51:11;;;;;;;55.50;1.80;;;;;;;;;;5050751;28;20529;-71
2023/11/14 08:53:39;;;;;;;55.57;1.90;;;;;;;;;;5050805;28;21244;-71
2023/11/14 08:56:06;;;;;;;55.60;2.27;;;;;;;;;;5051089;28;20455;-71
2023/11/14 08:58:34;;;;;;;55.37;1.70;;;;;;;;;;5051054;28;20455;-71
2023/11/14 09:01:04;;;;;;;54.87;1.80;;;;;;;;;;5050790;28;20471;-71
2023/11/14 09:03:31;;;;;;;55.27;1.97;;;;;;;;;;5050770;28;20546;-71
2023/11/14 09:05:58;;;;;;;59.20;2.57;;;;;;;;;;5051337;28;20472;-71
2023/11/14 09:08:25;;;;;;;55.57;1.83;;;;;;;;;;5050832;28;20453;-71
2023/11/14 09:10:52;;;;;;;56.30;2.50;;;;;;;;;;5050562;28;21024;-71
2023/11/14 09:13:19;;;;;;;55.60;2.13;;;;;;;;;;5050962;28;20455;-71
2023/11/14 09:15:46;;;;;;;59.60;2.23;;;;;;;;;;5050713;28;20444;-71
2023/11/14 09:18:15;;;;;;;55.27;1.63;;;;;;;;;;5051155;28;20450;-71
2023/11/14 09:20:43;;;;;;;55.30;1.93;;;;;;;;;;5054816;28;20831;-71
2023/11/14 09:23:10;;;;;;;55.60;2.00;;;;;;;;;;5054880;28;20462;-72
2023/11/14 09:25:37;;;;;;;55.60;1.87;;;;;;;;;;5054946;28;20455;-71
2023/11/14 09:28:04;;;;;;;55.50;1.80;;;;;;;;;;5061666;28;20466;-70
2023/11/14 09:30:31;;;;;;;55.07;1.90;;;;;;;;;;5074465;28;20474;-71
2023/11/14 09:32:58;;;;;;;55.17;1.90;;;;;;;;;;5073533;28;20629;-71
2023/11/14 09:35:27;;;;;;;55.47;1.87;;;;;;;;;;5076399;28;20450;-71
2023/11/14 09:37:54;;;;;;;55.80;2.30;;;;;;;;;;5076304;28;20515;-71
2023/11/14 09:40:22;;;;;;;55.50;2.20;;;;;;;;;;5075998;28;20457;-71
2023/11/14 09:42:49;;;;;;;55.07;1.90;;;;;;;;;;5076246;28;20509;-71
2023/11/14 09:45:18;;;;;;;56.00;1.90;;;;;;;;;;5077281;28;20455;-71
2023/11/14 09:47:45;;;;;;;55.13;2.10;;;;;;;;;;5077639;28;20494;-71
2023/11/14 09:50:12;;;;;;;56.77;2.00;;;;;;;;;;5077753;28;20454;-71
2023/11/14 09:52:41;;;;;;;54.93;1.80;;;;;;;;;;5076397;28;20498;-71
2023/11/14 09:55:11;;;;;;;55.47;1.80;;;;;;;;;;5077387;28;20471;-71
2023/11/14 09:57:38;;;;;;;55.60;2.67;;;;;;;;;;5077096;28;20445;-70
2023/11/14 10:00:07;;;;;;;55.47;1.90;;;;;;;;;;5076867;28;20940;-70
2023/11/14 10:02:34;;;;;;;55.57;1.80;;;;;;;;;;5076850;28;20454;-70
2023/11/14 10:05:02;;;;;;;54.77;1.67;;;;;;;;;;5076649;28;20441;-70
2023/11/14 10:07:30;;;;;;;55.63;1.63;;;;;;;;;;5077237;28;20458;-71
2023/11/14 10:10:00;;;;;;;55.77;1.90;;;;;;;;;;5074324;28;20451;-71
2023/11/14 10:12:34;;;;;;;55.87;2.00;;;;;;;;;;5059101;28;20488;-71
2023/11/14 10:15:03;;;;;;;55.70;1.70;;;;;;;;;;5056628;28;20452;-71
2023/11/14 10:17:40;;;;;;;55.40;2.20;;;;;;;;;;5056331;28;20487;-71
2023/11/14 10:20:08;;;;;;;55.57;1.90;;;;;;;;;;5056340;28;20883;-71
2023/11/14 10:22:36;;;;;;;55.47;1.67;;;;;;;;;;5055370;28;20445;-71
2023/11/14 10:25:04;;;;;;;55.27;1.80;;;;;;;;;;5055048;28;20810;-72
2023/11/14 10:27:33;;;;;;;55.77;1.90;;;;;;;;;;5054918;28;20810;-71
2023/11/14 10:30:00;;;;;;;55.47;1.77;;;;;;;;;;5057146;28;20451;-71
2023/11/14 10:32:27;;;;;;;55.37;2.10;;;;;;;;;;5064802;28;20482;-71
2023/11/14 10:34:54;;;;;;;55.47;1.83;;;;;;;;;;5058139;28;20458;-71
2023/11/14 10:37:31;;;;;;;55.70;2.00;;;;;;;;;;5054624;28;20450;-71
2023/11/14 10:39:59;;;;;;;55.70;1.70;;;;;;;;;;5054394;28;20452;-71
2023/11/14 10:42:27;;;;;;;55.83;2.03;;;;;;;;;;5053968;28;20467;-71
2023/11/14 10:45:01;;;;;;;55.47;1.70;;;;;;;;;;5054106;28;20827;-71
2023/11/14 10:47:38;;;;;;;55.47;1.90;;;;;;;;;;5053300;28;20880;-71
2023/11/14 10:50:05;;;;;;;55.37;1.60;;;;;;;;;;5053902;28;20459;-71
2023/11/14 10:52:34;;;;;;;55.37;1.70;;;;;;;;;;5053276;28;20517;-72
2023/11/14 10:55:01;;;;;;;55.60;1.50;;;;;;;;;;5053260;28;20443;-71
2023/11/14 10:57:31;;;;;;;55.07;1.73;;;;;;;;;;5052927;28;20808;-71
2023/11/14 10:59:58;;;;;;;55.40;1.60;;;;;;;;;;5053460;28;20452;-72
2023/11/14 11:02:32;;;;;;;55.50;1.77;;;;;;;;;;5053602;28;20471;-72
2023/11/14 11:05:00;;;;;;;55.83;1.80;;;;;;;;;;5054480;28;20450;-69
2023/11/14 11:07:28;;;;;;;55.37;1.90;;;;;;;;;;5053516;28;20451;-71
2023/11/14 11:09:55;;;;;;;55.30;1.93;;;;;;;;;;5053946;28;20466;-71
2023/11/14 11:12:24;;;;;;;55.43;1.73;;;;;;;;;;5052847;28;20846;-71
2023/11/14 11:14:52;;;;;;;55.70;1.90;;;;;;;;;;5052858;28;20453;-71
2023/11/14 11:17:35;;;;;;;55.70;1.80;;;;;;;;;;5053288;28;20455;-71
2023/11/14 11:20:02;;;;;;;55.50;1.83;;;;;;;;;;5053391;28;20444;-71
2023/11/14 11:22:50;;;;;;;56.40;2.07;;;;;;;;;;5053091;28;20502;-71
2023/11/14 11:25:21;;;;;;;54.97;1.93;;;;;;;;;;5052853;28;21194;-71
2023/11/14 11:27:48;;;;;;;55.80;3.03;;;;;;;;;;5052616;28;20485;-71
2023/11/14 11:30:17;;;;;;;55.50;1.80;;;;;;;;;;5052279;28;20509;-72
2023/11/14 11:32:45;;;;;;;55.33;1.70;;;;;;;;;;5052117;28;20493;-71
2023/11/14 11:35:28;;;;;;;55.43;1.90;;;;;;;;;;5052913;28;20582;-72
2023/11/14 11:37:56;;;;;;;54.77;1.50;;;;;;;;;;5052510;28;20448;-71
2023/11/14 11:40:25;;;;;;;55.23;1.70;;;;;;;;;;5052479;28;20912;-72
2023/11/14 11:42:52;;;;;;;54.97;1.70;;;;;;;;;;5051660;28;20440;-72
2023/11/14 11:45:34;;;;;;;55.77;1.77;;;;;;;;;;5052556;28;20448;-72
2023/11/14 11:48:02;;;;;;;55.20;1.60;;;;;;;;;;5052358;28;20475;-71
2023/11/14 11:50:29;;;;;;;55.27;1.70;;;;;;;;;;5052350;28;20506;-71
2023/11/14 11:53:04;;;;;;;55.67;1.80;;;;;;;;;;5052314;28;20494;-71
2023/11/14 11:55:31;;;;;;;55.37;1.80;;;;;;;;;;5052204;28;20510;-72
2023/11/14 11:58:01;;;;;;;58.67;2.20;;;;;;;;;;5052101;28;20474;-72
2023/11/14 12:00:28;;;;;;;55.07;1.73;;;;;;;;;;5052231;28;20509;-72
2023/11/14 12:02:59;;;;;;;55.67;1.80;;;;;;;;;;5052304;28;20810;-72
2023/11/14 12:05:28;;;;;;;55.27;1.90;;;;;;;;;;5052049;28;20467;-71
2023/11/14 12:07:56;;;;;;;55.30;1.90;;;;;;;;;;5052039;28;20806;-71
2023/11/14 12:10:24;;;;;;;55.73;2.03;;;;;;;;;;5051687;28;20466;-72
2023/11/14 12:12:55;;;;;;;55.27;1.80;;;;;;;;;;5051315;28;20514;-72
2023/11/14 12:15:22;;;;;;;55.03;1.80;;;;;;;;;;5052013;28;20488;-71
2023/11/14 12:17:50;;;;;;;55.37;1.73;;;;;;;;;;5051931;28;20458;-72
2023/11/14 12:20:18;;;;;;;55.07;1.70;;;;;;;;;;5051910;28;20542;-72
2023/11/14 12:22:49;;;;;;;55.37;1.97;;;;;;;;;;5051344;28;20478;-71
2023/11/14 12:25:16;;;;;;;56.10;2.07;;;;;;;;;;5051599;28;20941;-71
2023/11/14 12:27:48;;;;;;;55.17;2.10;;;;;;;;;;5051296;28;20513;-72
2023/11/14 12:30:16;;;;;;;55.43;2.00;;;;;;;;;;5051437;28;20447;-71
2023/11/14 12:32:43;;;;;;;56.30;2.20;;;;;;;;;;5051745;28;20489;-71
2023/11/14 12:35:10;;;;;;;55.90;2.80;;;;;;;;;;5051518;28;20450;-72
2023/11/14 12:37:39;;;;;;;55.53;1.83;;;;;;;;;;5051217;28;20466;-71
2023/11/14 12:40:09;;;;;;;55.47;1.80;;;;;;;;;;5051351;28;20467;-71
2023/11/14 12:42:36;;;;;;;55.10;1.83;;;;;;;;;;5051308;28;20504;-72
2023/11/14 12:45:05;;;;;;;55.40;1.67;;;;;;;;;;5051028;28;20457;-71
2023/11/14 12:47:33;;;;;;;55.50;1.83;;;;;;;;;;5050970;28;20533;-71
2023/11/14 12:50:01;;;;;;;55.27;1.90;;;;;;;;;;5050855;28;20455;-72
2023/11/14 12:52:30;;;;;;;55.47;2.10;;;;;;;;;;5050507;28;21014;-71
2023/11/14 12:55:00;;;;;;;55.37;1.70;;;;;;;;;;5051132;28;20447;-72
2023/11/14 12:57:27;;;;;;;55.40;1.87;;;;;;;;;;5051038;28;20954;-72
2023/11/14 12:59:55;;;;;;;55.77;1.70;;;;;;;;;;5050935;28;20508;-72
2023/11/14 13:02:23;;;;;;;55.87;2.00;;;;;;;;;;5050733;28;20470;-71
2023/11/14 13:04:51;;;;;;;57.17;2.10;;;;;;;;;;5050674;28;20463;-71
2023/11/14 13:07:18;;;;;;;55.40;1.70;;;;;;;;;;5050619;28;20450;-72
2023/11/14 13:09:45;;;;;;;55.27;1.63;;;;;;;;;;5050574;28;20463;-71
2023/11/14 13:12:14;;;;;;;55.17;1.80;;;;;;;;;;5050743;28;20846;-71
2023/11/14 13:14:42;;;;;;;55.53;3.43;;;;;;;;;;5050781;28;20486;-72
2023/11/14 13:17:09;;;;;;;55.67;1.73;;;;;;;;;;5050555;28;21011;-71
2023/11/14 13:19:38;;;;;;;56.20;2.73;;;;;;;;;;5050338;28;20464;-71
2023/11/14 13:22:06;;;;;;;55.90;2.20;;;;;;;;;;5050833;28;20562;-71
2023/11/14 13:24:33;;;;;;;55.47;1.77;;;;;;;;;;5050679;28;20460;-72
2023/11/14 13:27:00;;;;;;;55.37;1.53;;;;;;;;;;5050500;28;20457;-71
2023/11/14 13:29:29;;;;;;;56.23;2.30;;;;;;;;;;5050650;28;20459;-71
2023/11/14 13:31:56;;;;;;;55.60;1.90;;;;;;;;;;5050041;28;20492;-72
2023/11/14 13:34:23;;;;;;;55.67;1.87;;;;;;;;;;5050493;28;20448;-71
2023/11/14 13:36:50;;;;;;;54.97;1.80;;;;;;;;;;5050574;28;20459;-72
2023/11/14 13:39:18;;;;;;;54.87;1.70;;;;;;;;;;5050509;28;20450;-72
2023/11/14 13:41:45;;;;;;;55.27;1.70;;;;;;;;;;5050245;28;20532;-72
2023/11/14 13:44:12;;;;;;;55.43;1.70;;;;;;;;;;5050473;28;20537;-72
2023/11/14 13:46:41;;;;;;;55.67;1.90;;;;;;;;;;5050148;28;20447;-72
2023/11/14 13:49:09;;;;;;;55.47;1.80;;;;;;;;;;5050306;28;20819;-71
2023/11/14 13:51:36;;;;;;;55.50;1.90;;;;;;;;;;5050566;28;20471;-71
2023/11/14 13:54:04;;;;;;;55.60;1.87;;;;;;;;;;5050187;28;20491;-72
2023/11/14 13:56:32;;;;;;;55.37;1.80;;;;;;;;;;5050324;28;20458;-72
2023/11/14 13:59:00;;;;;;;55.47;1.90;;;;;;;;;;5050248;28;20447;-72
2023/11/14 14:01:28;;;;;;;57.80;2.10;;;;;;;;;;5049922;28;20474;-71
2023/11/14 14:03:56;;;;;;;55.80;1.90;;;;;;;;;;5049946;28;20447;-71
2023/11/14 14:06:23;;;;;;;55.50;1.90;;;;;;;;;;5053580;28;20453;-72
2023/11/14 14:08:50;;;;;;;55.70;1.77;;;;;;;;;;5053688;28;20451;-72
2023/11/14 14:11:17;;;;;;;55.07;1.60;;;;;;;;;;5053863;28;20477;-72
2023/11/14 14:13:44;;;;;;;60.23;2.23;;;;;;;;;;5053560;28;20490;-72
2023/11/14 14:16:14;;;;;;;55.27;1.63;;;;;;;;;;5053900;28;20461;-72
2023/11/14 14:18:44;;;;;;;54.90;1.67;;;;;;;;;;5053723;28;20465;-73
2023/11/14 14:21:13;;;;;;;55.77;1.93;;;;;;;;;;5053772;28;20480;-72
2023/11/14 14:23:41;;;;;;;55.90;2.23;;;;;;;;;;5053549;28;20537;-72
2023/11/14 14:26:09;;;;;;;55.27;1.60;;;;;;;;;;5053853;28;20443;-72
2023/11/14 14:28:36;;;;;;;55.37;1.90;;;;;;;;;;5054125;28;20801;-72
2023/11/14 14:31:05;;;;;;;55.47;1.83;;;;;;;;;;5053740;28;20467;-72
2023/11/14 14:33:32;;;;;;;55.27;2.20;;;;;;;;;;5053251;28;20491;-72
2023/11/14 14:35:59;;;;;;;55.37;1.80;;;;;;;;;;5053550;28;20459;-72
2023/11/14 14:38:28;;;;;;;55.27;1.90;;;;;;;;;;5053168;28;20447;-72